Wesel-Römerwardt Airfield

EDLX · North Rhine-Westphalia, 德国

罗盘
风向 的 风向 的 风向 到 风向 210° Wesel-Römerwardt Airport 8/26
风: 11 kt, 4 beaufort

6 kt

9 kt
改变
0 ft 1.000 2.000 3.000 4.000 5.000
Cloud Cloud Cloud Cloud Cloud Cloud
BKN 1.600
Cloud Cloud Cloud Cloud Cloud Cloud Cloud Cloud
OVC 1.900
METAR EHVK 291455Z AUTO 21011KT 170V250 9999 BKN016 OVC019 03/M00 Q1024 WHT

METAR Wesel-Römerwardt Airport - EDLX

Wesel-Römerwardt Airport是,德国中的小机场。 该机场有一条跑道: 8/26. 该领域的国际民航组织标志是EDLX.

这份报告是针对2023年1月29日 15:55, 当地时间在Volkel Air Base进行的。

机场观察

风向为210°,速度为11 kt。 风向在170°和250°之间变化。

可见度为10 km 或者更多。

有碎云在1.600 ft的高度 和 乌云密布在1.900 ft的高度。 破损或更高的上限为1.600 ft。

温度为3 °C,阵风为-4 °C。 海平面上的气压为1024 hPa (QNH)。

白天

今天,太阳从08:16升起,在17:16降落。 这适用于Wesel-Römerwardt Airport,世界夏令时可能有所不同。 当地时间与世界标准时间之间的时差为+1 小时。 当前,没有夏令时有效。

公司介绍

我们没有关于这个机场的公司信息。

体会

到Vliegles.nl去找飞行课程,跳伞和其他飞行体验。 浏览页面,了解Wesel-Römerwardt Airport附近所有可用的活动。 你也可以使用搜索功能来寻找你所在地附近的特定飞行课程、跳伞或其他飞行体验。

跑道

Id 标题 侧风 逆风 侧风 %
8/26 084°-264° 9 kt 6 kt 81 %

逆风成分最大的方向会被突出显示,并用于横风计算。 这并不一定意味着这个方向在使用。

乌云

1.600 ft BKN 碎云
1.900 ft OVC 乌云密布

温度 & 天气

温度 3 °C
露点 0 °C
相对湿度 81%
风寒 -4 °C
Kp-index 0 (0-9)

白天

日出
08:20
中午
12:50
日落
17:19 (51m)

小工具

你想在你的网站上有一个关于Wesel-Römerwardt Airport的当前航空天气(METAR)的小部件吗?

显示HTML代码

我们和第三方通过cookies跟踪您在我们网站上的互联网行为。如果你继续,我们认为你同意我们的饼干政策